createdAt,value
2019-05-23T00:00:14.508Z,0.00
2019-05-23T00:01:14.532Z,0.00
2019-05-23T00:02:14.544Z,0.00
2019-05-23T00:03:14.562Z,0.00
2019-05-23T00:04:14.582Z,0.00
2019-05-23T00:05:14.600Z,0.00
2019-05-23T00:06:14.617Z,0.00
2019-05-23T00:07:14.644Z,0.00
2019-05-23T00:08:14.655Z,0.00
2019-05-23T00:09:14.674Z,0.00
2019-05-23T00:10:14.690Z,0.00
2019-05-23T00:11:14.712Z,0.00
2019-05-23T00:12:14.730Z,0.00
2019-05-23T00:13:14.746Z,0.00
2019-05-23T00:14:14.766Z,0.00
2019-05-23T00:15:14.787Z,0.00
2019-05-23T00:16:14.804Z,0.00
2019-05-23T00:17:14.830Z,0.00
2019-05-23T00:18:14.859Z,0.00
2019-05-23T00:19:14.869Z,0.00
2019-05-23T00:20:14.876Z,0.00
2019-05-23T00:21:14.894Z,0.00
2019-05-23T00:22:14.917Z,0.00
2019-05-23T00:23:14.932Z,0.00
2019-05-23T00:24:14.951Z,0.00
2019-05-23T00:25:14.970Z,0.00
2019-05-23T00:26:14.987Z,0.00
2019-05-23T00:27:15.004Z,0.00
2019-05-23T00:28:15.023Z,0.00
2019-05-23T00:29:15.046Z,0.00
2019-05-23T00:30:15.064Z,0.00
2019-05-23T00:31:15.078Z,0.00
2019-05-23T00:32:15.098Z,0.00
2019-05-23T00:33:15.114Z,0.00
2019-05-23T00:34:15.131Z,0.00
2019-05-23T00:35:15.151Z,0.00
2019-05-23T00:36:15.177Z,0.00
2019-05-23T00:37:15.195Z,0.00
2019-05-23T00:38:15.208Z,0.00
2019-05-23T00:39:15.224Z,0.00
2019-05-23T00:40:15.245Z,0.00
2019-05-23T00:41:15.260Z,0.00
2019-05-23T00:42:15.283Z,0.00
2019-05-23T00:43:15.298Z,0.00
2019-05-23T00:44:15.319Z,0.00
2019-05-23T00:45:15.336Z,0.00
2019-05-23T00:46:15.352Z,0.00
2019-05-23T00:47:15.375Z,0.00
2019-05-23T00:48:15.389Z,0.00
2019-05-23T00:49:15.410Z,0.00
2019-05-23T00:50:15.428Z,0.00
2019-05-23T00:51:15.445Z,0.00
2019-05-23T00:52:15.461Z,0.00
2019-05-23T00:53:15.487Z,0.00
2019-05-23T00:54:15.513Z,0.00
2019-05-23T00:55:15.518Z,0.00
2019-05-23T00:56:15.541Z,0.00
2019-05-23T00:57:15.553Z,0.00
2019-05-23T00:58:15.573Z,0.00
2019-05-23T00:59:26.425Z,0.00
2019-05-23T01:00:15.609Z,0.00
2019-05-23T01:01:15.628Z,0.00
2019-05-23T01:02:15.648Z,0.00
2019-05-23T01:03:15.667Z,0.00
2019-05-23T01:04:15.688Z,0.00
2019-05-23T01:05:15.700Z,0.00
2019-05-23T01:06:15.720Z,0.00
2019-05-23T01:07:15.737Z,0.00
2019-05-23T01:08:15.757Z,0.00
2019-05-23T01:09:15.777Z,0.00
2019-05-23T01:10:15.793Z,0.00
2019-05-23T01:11:15.814Z,0.00
2019-05-23T01:12:15.833Z,0.00
2019-05-23T01:13:15.854Z,0.00
2019-05-23T01:14:15.879Z,0.00
2019-05-23T01:15:15.895Z,0.00
2019-05-23T01:16:15.905Z,0.00
2019-05-23T01:17:15.922Z,0.00
2019-05-23T01:18:15.953Z,0.00
2019-05-23T01:19:15.959Z,0.00
2019-05-23T01:20:15.976Z,0.00
2019-05-23T01:21:15.998Z,0.00
2019-05-23T01:22:16.015Z,0.00
2019-05-23T01:23:16.041Z,0.00
2019-05-23T01:24:16.057Z,0.00
2019-05-23T01:25:16.135Z,0.00
2019-05-23T01:26:16.134Z,0.00
2019-05-23T01:27:16.137Z,0.00
2019-05-23T01:28:16.209Z,0.00
2019-05-23T01:29:16.201Z,0.00
2019-05-23T01:30:16.196Z,0.00
2019-05-23T01:31:16.218Z,0.00
2019-05-23T01:32:16.212Z,0.00
2019-05-23T01:33:16.215Z,0.00
2019-05-23T01:34:16.232Z,0.00
2019-05-23T01:35:16.255Z,0.00
2019-05-23T01:36:16.319Z,0.00
2019-05-23T01:37:16.292Z,0.00
2019-05-23T01:38:16.305Z,0.00
2019-05-23T01:39:16.332Z,0.00
2019-05-23T01:40:16.347Z,0.00
2019-05-23T01:41:16.389Z,0.00
2019-05-23T01:42:16.382Z,0.00
2019-05-23T01:43:16.397Z,0.00
2019-05-23T01:44:16.416Z,0.00
2019-05-23T01:45:16.438Z,0.00
2019-05-23T01:46:16.451Z,0.00
2019-05-23T01:47:16.470Z,0.00
2019-05-23T01:48:16.488Z,0.00
2019-05-23T01:49:16.506Z,0.00
2019-05-23T01:50:16.525Z,0.00
2019-05-23T01:51:16.565Z,0.00
2019-05-23T01:52:16.582Z,0.00
2019-05-23T01:53:16.580Z,0.00
2019-05-23T01:54:16.601Z,0.00
2019-05-23T01:55:16.646Z,0.00
2019-05-23T01:56:16.644Z,0.00
2019-05-23T01:57:16.651Z,0.00
2019-05-23T01:58:16.672Z,0.00
2019-05-23T01:59:16.687Z,0.00
2019-05-23T02:00:16.705Z,0.00
2019-05-23T02:01:16.731Z,0.00
2019-05-23T02:02:16.742Z,0.00
2019-05-23T02:03:16.763Z,0.00
2019-05-23T02:04:16.778Z,0.00
2019-05-23T02:05:16.797Z,0.00
2019-05-23T02:06:16.814Z,0.00
2019-05-23T02:07:16.832Z,0.00
2019-05-23T02:08:16.995Z,0.00
2019-05-23T02:09:16.868Z,0.00
2019-05-23T02:10:16.885Z,0.00
2019-05-23T02:11:16.905Z,0.00
2019-05-23T02:12:16.928Z,0.00
2019-05-23T02:13:16.943Z,0.00
2019-05-23T02:14:16.958Z,0.00
2019-05-23T02:15:16.978Z,0.00
2019-05-23T02:16:16.996Z,0.00
2019-05-23T02:17:17.013Z,0.00
2019-05-23T02:18:17.029Z,0.00
2019-05-23T02:19:17.045Z,0.00
2019-05-23T02:20:17.066Z,0.00
2019-05-23T02:21:17.083Z,0.00
2019-05-23T02:22:17.100Z,0.00
2019-05-23T02:23:17.120Z,0.00
2019-05-23T02:24:17.155Z,0.00
2019-05-23T02:25:17.156Z,0.00
2019-05-23T02:26:17.172Z,0.00
2019-05-23T02:27:17.196Z,0.00
2019-05-23T02:28:17.206Z,0.00
2019-05-23T02:29:17.230Z,0.00
2019-05-23T02:30:32.866Z,0.00
2019-05-23T02:31:17.262Z,0.00
2019-05-23T02:32:17.280Z,0.00
2019-05-23T02:33:17.296Z,0.00
2019-05-23T02:34:17.318Z,0.00
2019-05-23T02:35:17.341Z,0.00
2019-05-23T02:36:17.352Z,0.00
2019-05-23T02:37:17.368Z,0.00
2019-05-23T02:38:17.388Z,0.00
2019-05-23T02:39:17.403Z,0.00
2019-05-23T02:40:17.425Z,0.00
2019-05-23T02:41:17.439Z,0.00
2019-05-23T02:42:17.459Z,0.00
2019-05-23T02:43:17.476Z,0.00
2019-05-23T02:44:17.495Z,0.00
2019-05-23T02:45:17.514Z,0.00
2019-05-23T02:46:17.527Z,0.00
2019-05-23T02:47:17.545Z,0.00
2019-05-23T02:48:17.577Z,0.00
2019-05-23T02:49:17.583Z,0.00
2019-05-23T02:50:17.599Z,0.00
2019-05-23T02:51:17.615Z,0.00
2019-05-23T02:52:17.638Z,0.00
2019-05-23T02:53:17.654Z,5.63
2019-05-23T02:54:17.669Z,5.63
2019-05-23T02:55:17.688Z,5.63
2019-05-23T02:56:17.714Z,5.63
2019-05-23T02:57:17.725Z,5.63
2019-05-23T02:58:17.742Z,5.63
2019-05-23T02:59:17.758Z,5.63
2019-05-23T03:00:17.776Z,5.63
2019-05-23T03:01:17.793Z,11.25
2019-05-23T03:02:17.812Z,11.25
2019-05-23T03:03:17.828Z,11.25
2019-05-23T03:04:17.846Z,11.25
2019-05-23T03:05:17.864Z,11.25
2019-05-23T03:06:17.879Z,11.25
2019-05-23T03:07:17.897Z,11.25
2019-05-23T03:08:17.917Z,16.88
2019-05-23T03:09:18.017Z,16.88
2019-05-23T03:10:18.024Z,16.88
2019-05-23T03:11:18.003Z,16.88
2019-05-23T03:12:18.009Z,22.50
2019-05-23T03:13:18.069Z,22.50
2019-05-23T03:14:18.074Z,22.50
2019-05-23T03:15:18.065Z,22.50
2019-05-23T03:16:18.082Z,22.50
2019-05-23T03:17:18.081Z,28.13
2019-05-23T03:18:18.090Z,28.13
2019-05-23T03:19:18.108Z,28.13
2019-05-23T03:20:18.126Z,28.13
2019-05-23T03:21:18.144Z,33.75
2019-05-23T03:22:18.160Z,33.75
2019-05-23T03:23:18.180Z,33.75
2019-05-23T03:24:18.198Z,33.75
2019-05-23T03:25:18.224Z,39.38
2019-05-23T03:26:18.241Z,39.38
2019-05-23T03:27:18.249Z,39.38
2019-05-23T03:28:18.268Z,39.38
2019-05-23T03:29:18.286Z,39.38
2019-05-23T03:30:18.305Z,45.00
2019-05-23T03:31:30.991Z,45.00
2019-05-23T03:32:18.337Z,45.00
2019-05-23T03:33:18.361Z,50.63
2019-05-23T03:34:18.419Z,50.63
2019-05-23T03:35:18.391Z,50.63
2019-05-23T03:36:18.406Z,56.25
2019-05-23T03:37:18.452Z,56.25
2019-05-23T03:38:18.445Z,56.25
2019-05-23T03:39:18.459Z,61.88
2019-05-23T03:40:18.484Z,61.88
2019-05-23T03:41:18.493Z,61.88
2019-05-23T03:42:18.510Z,61.88
2019-05-23T03:43:18.528Z,67.50
2019-05-23T03:44:18.639Z,67.50
2019-05-23T03:45:18.560Z,73.13
2019-05-23T03:46:18.583Z,73.13
2019-05-23T03:47:18.596Z,73.13
2019-05-23T03:48:18.613Z,73.13
2019-05-23T03:49:18.632Z,78.75
2019-05-23T03:50:18.647Z,78.75
2019-05-23T03:51:18.671Z,78.75
2019-05-23T03:52:18.684Z,78.75
2019-05-23T03:53:18.704Z,78.75
2019-05-23T03:54:18.737Z,78.75
2019-05-23T03:55:18.734Z,78.75
2019-05-23T03:56:18.752Z,78.75
2019-05-23T03:57:18.773Z,78.75
2019-05-23T03:58:18.807Z,78.75
2019-05-23T03:59:18.806Z,78.75
2019-05-23T04:00:18.820Z,78.75
2019-05-23T04:01:18.840Z,78.75
2019-05-23T04:02:18.854Z,84.38
2019-05-23T04:03:18.873Z,84.38
2019-05-23T04:04:18.890Z,84.38
2019-05-23T04:05:18.907Z,84.38
2019-05-23T04:06:18.921Z,84.38
2019-05-23T04:07:18.948Z,90.00
2019-05-23T04:08:18.960Z,90.00
2019-05-23T04:09:18.974Z,90.00
2019-05-23T04:10:18.989Z,90.00
2019-05-23T04:11:19.008Z,90.00
2019-05-23T04:12:19.025Z,95.63
2019-05-23T04:13:19.041Z,95.63
2019-05-23T04:14:19.057Z,95.63
2019-05-23T04:15:19.074Z,95.63
2019-05-23T04:16:19.093Z,101.25
2019-05-23T04:17:19.114Z,101.25
2019-05-23T04:18:19.127Z,101.25
2019-05-23T04:19:19.139Z,101.25
2019-05-23T04:20:19.158Z,106.88
2019-05-23T04:21:19.176Z,106.88
2019-05-23T04:22:19.194Z,106.88
2019-05-23T04:23:19.231Z,112.50
2019-05-23T04:24:19.238Z,118.13
2019-05-23T04:25:19.246Z,118.13
2019-05-23T04:26:19.261Z,123.75
2019-05-23T04:27:19.281Z,123.75
2019-05-23T04:28:19.294Z,129.38
2019-05-23T04:29:19.310Z,129.38
2019-05-23T04:30:19.328Z,135.00
2019-05-23T04:31:19.345Z,140.63
2019-05-23T04:32:19.362Z,146.25
2019-05-23T04:33:19.378Z,151.88
2019-05-23T04:34:19.392Z,157.50
2019-05-23T04:35:19.424Z,157.50
2019-05-23T04:36:19.432Z,157.50
2019-05-23T04:37:19.443Z,163.13
2019-05-23T04:38:19.475Z,163.13
2019-05-23T04:39:19.485Z,163.13
2019-05-23T04:40:19.495Z,163.13
2019-05-23T04:41:19.518Z,168.75
2019-05-23T04:42:19.529Z,168.75
2019-05-23T04:43:19.551Z,168.75
2019-05-23T04:44:19.563Z,168.75
2019-05-23T04:45:19.581Z,174.38
2019-05-23T04:46:19.595Z,174.38
2019-05-23T04:47:19.613Z,174.38
2019-05-23T04:48:19.637Z,180.00
2019-05-23T04:49:19.646Z,180.00
2019-05-23T04:50:19.662Z,180.00
2019-05-23T04:51:19.701Z,180.00
2019-05-23T04:52:19.707Z,185.63
2019-05-23T04:53:19.716Z,185.63
2019-05-23T04:54:19.732Z,191.25
2019-05-23T04:55:19.749Z,191.25
2019-05-23T04:56:19.770Z,191.25
2019-05-23T04:57:19.783Z,196.88
2019-05-23T04:58:19.884Z,196.88
2019-05-23T04:59:19.876Z,202.50
2019-05-23T05:00:19.890Z,208.13
2019-05-23T05:01:19.891Z,213.75
2019-05-23T05:02:26.184Z,219.38
2019-05-23T05:03:19.940Z,225.00
2019-05-23T05:04:19.938Z,230.63
2019-05-23T05:05:19.939Z,230.63
2019-05-23T05:06:19.934Z,236.25
2019-05-23T05:07:19.953Z,241.88
2019-05-23T05:08:19.969Z,241.88
2019-05-23T05:09:19.988Z,247.50
2019-05-23T05:10:20.006Z,253.13
2019-05-23T05:11:20.087Z,258.75
2019-05-23T05:12:20.038Z,264.38
2019-05-23T05:13:20.057Z,264.38
2019-05-23T05:14:20.073Z,264.38
2019-05-23T05:15:20.092Z,270.00
2019-05-23T05:16:20.111Z,292.50
2019-05-23T05:17:20.126Z,315.00
2019-05-23T05:18:20.143Z,337.50
2019-05-23T05:19:20.162Z,286.88
2019-05-23T05:20:20.180Z,275.63
2019-05-23T05:21:20.196Z,292.50
2019-05-23T05:22:20.219Z,320.63
2019-05-23T05:23:20.237Z,461.25
2019-05-23T05:24:20.281Z,573.75
2019-05-23T05:25:20.279Z,585.00
2019-05-23T05:26:20.282Z,421.88
2019-05-23T05:27:20.299Z,281.25
2019-05-23T05:28:20.319Z,275.63
2019-05-23T05:29:20.338Z,264.38
2019-05-23T05:30:20.350Z,258.75
2019-05-23T05:31:20.372Z,253.13
2019-05-23T05:32:20.391Z,247.50
2019-05-23T05:33:20.405Z,258.75
2019-05-23T05:34:20.437Z,331.88
2019-05-23T05:35:20.444Z,427.50
2019-05-23T05:36:20.461Z,461.25
2019-05-23T05:37:20.482Z,466.88
2019-05-23T05:38:20.507Z,444.38
2019-05-23T05:39:20.518Z,382.50
2019-05-23T05:40:20.535Z,343.13
2019-05-23T05:41:20.561Z,438.75
2019-05-23T05:42:20.576Z,376.88
2019-05-23T05:43:20.589Z,275.63
2019-05-23T05:44:20.768Z,275.63
2019-05-23T05:45:20.623Z,270.00
2019-05-23T05:46:20.645Z,275.63
2019-05-23T05:47:20.667Z,275.63
2019-05-23T05:48:20.679Z,281.25
2019-05-23T05:49:20.699Z,286.88
2019-05-23T05:50:20.726Z,292.50
2019-05-23T05:51:20.733Z,286.88
2019-05-23T05:52:20.750Z,292.50
2019-05-23T05:53:20.770Z,292.50
2019-05-23T05:54:20.789Z,298.13
2019-05-23T05:55:20.808Z,303.75
2019-05-23T05:56:20.828Z,303.75
2019-05-23T05:57:20.847Z,320.63
2019-05-23T05:58:20.864Z,500.63
2019-05-23T05:59:20.887Z,500.63
2019-05-23T06:00:20.909Z,348.75
2019-05-23T06:01:33.497Z,337.50
2019-05-23T06:02:20.935Z,337.50
2019-05-23T06:03:20.955Z,348.75
2019-05-23T06:04:20.971Z,388.13
2019-05-23T06:05:20.995Z,360.00
2019-05-23T06:06:21.010Z,388.13
2019-05-23T06:07:21.030Z,410.63
2019-05-23T06:08:21.044Z,624.38
2019-05-23T06:09:21.104Z,686.25
2019-05-23T06:10:21.275Z,601.88
2019-05-23T06:11:21.105Z,568.13
2019-05-23T06:12:21.122Z,483.75
2019-05-23T06:13:21.144Z,450.00
2019-05-23T06:14:21.159Z,720.00
2019-05-23T06:15:21.177Z,900.00
2019-05-23T06:16:21.201Z,624.38
2019-05-23T06:17:21.215Z,601.88
2019-05-23T06:18:21.231Z,523.13
2019-05-23T06:19:21.267Z,500.63
2019-05-23T06:20:21.282Z,596.25
2019-05-23T06:21:21.293Z,759.38
2019-05-23T06:22:21.315Z,736.88
2019-05-23T06:23:21.332Z,765.00
2019-05-23T06:24:39.871Z,607.50
2019-05-23T06:25:21.374Z,787.50
2019-05-23T06:26:21.387Z,843.75
2019-05-23T06:27:21.411Z,1209.38
2019-05-23T06:28:21.481Z,1108.13
2019-05-23T06:29:21.445Z,939.38
2019-05-23T06:30:21.489Z,1428.75
2019-05-23T06:31:21.489Z,1293.75
2019-05-23T06:32:21.511Z,1085.63
2019-05-23T06:33:23.829Z,1080.00
2019-05-23T06:34:21.546Z,1001.25
2019-05-23T06:35:21.565Z,1192.50
2019-05-23T06:36:21.590Z,1299.38
2019-05-23T06:37:21.636Z,1372.50
2019-05-23T06:38:21.627Z,1625.63
2019-05-23T06:39:21.650Z,1822.50
2019-05-23T06:40:21.744Z,2041.88
2019-05-23T06:41:21.767Z,2075.63
2019-05-23T06:42:21.756Z,1929.38
2019-05-23T06:43:21.751Z,1996.88
2019-05-23T06:44:21.811Z,1940.63
2019-05-23T06:45:21.816Z,1968.75
2019-05-23T06:46:21.815Z,1996.88
2019-05-23T06:47:21.820Z,1968.75
2019-05-23T06:48:21.840Z,2137.50
2019-05-23T06:49:21.867Z,2176.88
2019-05-23T06:50:21.884Z,2137.50
2019-05-23T06:51:21.907Z,2148.75
2019-05-23T06:52:21.930Z,2188.13
2019-05-23T06:53:21.952Z,2278.13
2019-05-23T06:54:22.004Z,2143.13
2019-05-23T06:55:22.001Z,2261.25
2019-05-23T06:56:22.020Z,2385.00
2019-05-23T06:57:22.082Z,2295.00
2019-05-23T06:58:22.679Z,2385.00
2019-05-23T06:59:22.093Z,2379.38
2019-05-23T07:00:22.118Z,2238.75
2019-05-23T07:01:22.140Z,2030.63
2019-05-23T07:02:22.186Z,2030.63
2019-05-23T07:03:22.190Z,2109.38
2019-05-23T07:04:22.217Z,2165.63
2019-05-23T07:05:22.242Z,2227.50
2019-05-23T07:06:22.262Z,2075.63
2019-05-23T07:07:22.289Z,2131.88
2019-05-23T07:08:25.147Z,2193.75
2019-05-23T07:09:22.339Z,2176.88
2019-05-23T07:10:22.361Z,2221.88
2019-05-23T07:11:22.386Z,2351.25
2019-05-23T07:12:22.411Z,2553.75
2019-05-23T07:13:22.437Z,2761.88
2019-05-23T07:14:22.463Z,2784.38
2019-05-23T07:15:22.487Z,2683.13
2019-05-23T07:16:22.521Z,2469.38
2019-05-23T07:17:22.539Z,2660.63
2019-05-23T07:18:22.566Z,2688.75
2019-05-23T07:19:22.590Z,2694.38
2019-05-23T07:20:22.620Z,2716.88
2019-05-23T07:21:22.648Z,2626.88
2019-05-23T07:22:22.671Z,2548.13
2019-05-23T07:23:22.699Z,2615.63
2019-05-23T07:24:22.733Z,2728.13
2019-05-23T07:25:22.751Z,2683.13
2019-05-23T07:26:22.776Z,2767.50
2019-05-23T07:27:22.805Z,2688.75
2019-05-23T07:28:22.831Z,2666.25
2019-05-23T07:29:22.859Z,2638.13
2019-05-23T07:30:22.986Z,2458.13
2019-05-23T07:31:22.912Z,2671.88
2019-05-23T07:32:22.941Z,2705.63
2019-05-23T07:33:22.969Z,2835.00
2019-05-23T07:34:22.995Z,2671.88
2019-05-23T07:35:23.023Z,2908.13
2019-05-23T07:36:23.053Z,2930.63
2019-05-23T07:37:23.081Z,2660.63
2019-05-23T07:38:23.107Z,2947.50
2019-05-23T07:39:23.137Z,2835.00
2019-05-23T07:40:23.178Z,2874.38
2019-05-23T07:41:23.196Z,2868.75
2019-05-23T07:42:23.225Z,2863.13
2019-05-23T07:43:23.253Z,1068.75
2019-05-23T07:44:23.281Z,1006.88
2019-05-23T07:45:23.309Z,2992.50
2019-05-23T07:46:23.348Z,1170.00
2019-05-23T07:47:23.367Z,2964.38
2019-05-23T07:48:23.418Z,793.13
2019-05-23T07:49:23.429Z,646.88
2019-05-23T07:50:23.452Z,2683.13
2019-05-23T07:51:23.483Z,2756.25
2019-05-23T07:52:23.509Z,1057.50
2019-05-23T07:53:23.539Z,630.00
2019-05-23T07:54:23.565Z,1462.50
2019-05-23T07:55:23.683Z,2475.00
2019-05-23T07:56:23.663Z,2283.75
2019-05-23T07:57:23.726Z,2373.75
2019-05-23T07:58:23.723Z,2475.00
2019-05-23T07:59:23.723Z,2683.13
2019-05-23T08:00:23.737Z,3048.75
2019-05-23T08:01:23.763Z,3211.88
2019-05-23T08:02:25.728Z,2497.50
2019-05-23T08:03:23.817Z,900.00
2019-05-23T08:04:23.845Z,2829.38
2019-05-23T08:05:23.874Z,2638.13
2019-05-23T08:06:23.903Z,3133.13
2019-05-23T08:07:23.929Z,1141.88
2019-05-23T08:08:23.956Z,2756.25
2019-05-23T08:09:23.989Z,3155.63
2019-05-23T08:10:33.695Z,3110.63
2019-05-23T08:11:24.041Z,3189.38
2019-05-23T08:12:24.074Z,843.75
2019-05-23T08:13:24.165Z,3060.00
2019-05-23T08:14:24.131Z,3166.88
2019-05-23T08:15:24.156Z,3279.38
2019-05-23T08:16:24.181Z,3330.00
2019-05-23T08:17:24.210Z,3110.63
2019-05-23T08:18:24.264Z,1687.50
2019-05-23T08:19:24.278Z,3363.75
2019-05-23T08:20:24.298Z,3060.00
2019-05-23T08:21:24.328Z,3048.75
2019-05-23T08:22:24.359Z,3200.63
2019-05-23T08:23:24.389Z,3211.88
2019-05-23T08:24:24.437Z,3031.88
2019-05-23T08:25:24.450Z,3251.25
2019-05-23T08:26:24.478Z,3285.00
2019-05-23T08:27:24.504Z,3352.50
2019-05-23T08:28:24.533Z,2671.88
2019-05-23T08:29:26.308Z,3290.63
2019-05-23T08:30:24.597Z,3071.25
2019-05-23T08:31:24.624Z,3003.75
2019-05-23T08:32:24.661Z,3026.25
2019-05-23T08:33:24.683Z,3099.38
2019-05-23T08:34:39.947Z,3003.75
2019-05-23T08:35:24.744Z,1490.63
2019-05-23T08:36:24.777Z,1327.50
2019-05-23T08:37:24.804Z,1018.13
2019-05-23T08:38:24.832Z,2008.13
2019-05-23T08:39:24.860Z,1794.38
2019-05-23T08:40:24.904Z,1580.63
2019-05-23T08:41:24.921Z,1451.25
2019-05-23T08:42:24.955Z,1366.88
2019-05-23T08:43:24.978Z,1260.00
2019-05-23T08:44:25.009Z,1175.63
2019-05-23T08:45:25.038Z,1080.00
2019-05-23T08:46:25.068Z,995.63
2019-05-23T08:47:25.098Z,973.13
2019-05-23T08:48:25.127Z,961.88
2019-05-23T08:49:25.153Z,905.63
2019-05-23T08:50:25.179Z,894.38
2019-05-23T08:51:25.213Z,894.38
2019-05-23T08:52:25.235Z,888.75
2019-05-23T08:53:25.266Z,866.25
2019-05-23T08:54:25.336Z,860.63
2019-05-23T08:55:25.326Z,871.88
2019-05-23T08:56:25.349Z,866.25
2019-05-23T08:57:25.412Z,871.88
2019-05-23T08:58:25.401Z,866.25
2019-05-23T08:59:25.431Z,888.75
2019-05-23T09:00:25.458Z,922.50
2019-05-23T09:01:25.489Z,956.25
2019-05-23T09:02:25.594Z,978.75
2019-05-23T09:03:25.576Z,1001.25
2019-05-23T09:04:25.655Z,990.00
2019-05-23T09:05:25.647Z,995.63
2019-05-23T09:06:25.640Z,1006.88
2019-05-23T09:07:25.648Z,1018.13
2019-05-23T09:08:25.678Z,1012.50
2019-05-23T09:09:29.784Z,1035.00
2019-05-23T09:10:25.735Z,1040.63
2019-05-23T09:11:25.759Z,1029.38
2019-05-23T09:12:25.787Z,1023.75
2019-05-23T09:13:25.818Z,1023.75
2019-05-23T09:14:25.845Z,1029.38
2019-05-23T09:15:25.943Z,1040.63
2019-05-23T09:16:25.897Z,1023.75
2019-05-23T09:17:25.933Z,1001.25
2019-05-23T09:18:25.953Z,990.00
2019-05-23T09:19:25.982Z,984.38
2019-05-23T09:20:26.012Z,973.13
2019-05-23T09:21:26.042Z,967.50
2019-05-23T09:22:26.062Z,984.38
2019-05-23T09:23:26.107Z,995.63
2019-05-23T09:24:26.120Z,995.63
2019-05-23T09:25:26.152Z,1018.13
2019-05-23T09:26:26.175Z,1051.88
2019-05-23T09:27:26.206Z,1125.00
2019-05-23T09:28:26.236Z,1181.25
2019-05-23T09:29:26.263Z,1254.38
2019-05-23T09:30:26.290Z,1327.50
2019-05-23T09:31:26.340Z,1479.38
2019-05-23T09:32:26.346Z,1575.00
2019-05-23T09:33:26.377Z,1659.38
2019-05-23T09:34:26.407Z,1800.00
2019-05-23T09:35:26.430Z,2019.38
2019-05-23T09:36:26.462Z,2092.50
2019-05-23T09:37:26.508Z,2216.25
2019-05-23T09:38:26.512Z,2351.25
2019-05-23T09:39:26.543Z,2435.63
2019-05-23T09:40:26.580Z,2581.88
2019-05-23T09:41:26.598Z,2773.13
2019-05-23T09:42:26.626Z,2835.00
2019-05-23T09:43:26.652Z,3189.38
2019-05-23T09:44:26.682Z,3442.50
2019-05-23T09:45:26.708Z,3628.13
2019-05-23T09:46:26.749Z,3690.00
2019-05-23T09:47:26.830Z,3661.88
2019-05-23T09:48:26.797Z,3690.00
2019-05-23T09:49:26.826Z,3774.38
2019-05-23T09:50:26.858Z,4027.50
2019-05-23T09:51:26.881Z,4038.75
2019-05-23T09:52:26.910Z,4095.00
2019-05-23T09:53:26.946Z,4033.13
2019-05-23T09:54:26.967Z,3870.00
2019-05-23T09:55:26.999Z,3785.63
2019-05-23T09:56:27.029Z,3841.88
2019-05-23T09:57:27.061Z,3774.38
2019-05-23T09:58:27.089Z,3729.38
2019-05-23T09:59:27.123Z,4010.63
2019-05-23T10:00:27.239Z,3960.00
2019-05-23T10:01:27.192Z,4111.88
2019-05-23T10:02:27.215Z,4055.63
2019-05-23T10:03:27.257Z,4078.13
2019-05-23T10:04:27.287Z,3971.25
2019-05-23T10:05:41.538Z,4005.00
2019-05-23T10:06:27.347Z,4117.50
2019-05-23T10:07:27.381Z,4072.50
2019-05-23T10:08:27.420Z,4021.88
2019-05-23T10:09:27.501Z,4128.75
2019-05-23T10:10:27.515Z,3965.63
2019-05-23T10:11:27.561Z,3836.25
2019-05-23T10:12:27.560Z,3813.75
2019-05-23T10:13:38.558Z,3909.38
2019-05-23T10:14:27.614Z,3937.50
2019-05-23T10:15:27.648Z,3746.25
2019-05-23T10:16:27.684Z,3718.13
2019-05-23T10:17:27.726Z,3701.25
2019-05-23T10:18:27.750Z,3690.00
2019-05-23T10:19:27.790Z,3808.13
2019-05-23T10:20:27.821Z,3909.38
2019-05-23T10:21:27.856Z,3915.00
2019-05-23T10:22:27.890Z,3988.13
2019-05-23T10:23:27.926Z,3948.75
2019-05-23T10:24:27.960Z,3819.38
2019-05-23T10:25:27.997Z,3667.50
2019-05-23T10:26:28.029Z,3858.75
2019-05-23T10:27:28.065Z,3858.75
2019-05-23T10:28:28.124Z,3645.00
2019-05-23T10:29:28.149Z,3639.38
2019-05-23T10:30:28.170Z,3661.88
2019-05-23T10:31:28.205Z,3543.75
2019-05-23T10:32:28.242Z,3751.88
2019-05-23T10:33:28.276Z,3661.88
2019-05-23T10:34:28.340Z,3673.13
2019-05-23T10:35:28.345Z,3504.38
2019-05-23T10:36:28.382Z,3521.25
2019-05-23T10:37:28.419Z,3532.50
2019-05-23T10:38:29.417Z,3498.75
2019-05-23T10:39:28.486Z,3380.63
2019-05-23T10:40:28.524Z,3465.00
2019-05-23T10:41:28.555Z,3465.00
2019-05-23T10:42:28.591Z,3504.38
2019-05-23T10:43:28.624Z,3712.50
2019-05-23T10:44:28.659Z,3740.63
2019-05-23T10:45:28.695Z,3594.38
2019-05-23T10:46:28.733Z,3515.63
2019-05-23T10:47:28.766Z,3498.75
2019-05-23T10:48:28.798Z,3234.38
2019-05-23T10:49:28.853Z,3161.25
2019-05-23T10:50:43.686Z,3155.63
2019-05-23T10:51:28.904Z,3240.00
2019-05-23T10:52:29.012Z,2835.00
2019-05-23T10:53:28.974Z,3301.88
2019-05-23T10:54:29.008Z,3183.75
2019-05-23T10:55:29.046Z,2986.88
2019-05-23T10:56:29.078Z,2913.75
2019-05-23T10:57:29.115Z,3003.75
2019-05-23T10:58:29.151Z,3211.88
2019-05-23T10:59:29.182Z,3223.13
2019-05-23T11:00:29.216Z,3105.00
2019-05-23T11:01:29.254Z,3003.75
2019-05-23T11:02:29.286Z,2998.13
2019-05-23T11:03:29.321Z,3003.75
2019-05-23T11:04:29.443Z,2925.00
2019-05-23T11:05:29.425Z,2840.63
2019-05-23T11:06:29.551Z,2947.50
2019-05-23T11:07:29.482Z,2930.63
2019-05-23T11:08:30.480Z,2874.38
2019-05-23T11:09:37.757Z,2840.63
2019-05-23T11:10:29.576Z,2846.25
2019-05-23T11:11:29.607Z,2823.75
2019-05-23T11:12:29.637Z,2902.50
2019-05-23T11:13:29.664Z,2806.88
2019-05-23T11:14:29.702Z,2660.63
2019-05-23T11:15:29.733Z,2666.25
2019-05-23T11:16:29.767Z,2818.13
2019-05-23T11:17:29.802Z,2688.75
2019-05-23T11:18:29.837Z,2581.88
2019-05-23T11:19:29.878Z,2520.00
2019-05-23T11:20:29.930Z,2520.00
2019-05-23T11:21:29.940Z,2452.50
2019-05-23T11:22:30.040Z,2345.63
2019-05-23T11:23:30.019Z,2340.00
2019-05-23T11:24:30.044Z,2306.25
2019-05-23T11:25:30.077Z,2272.50
2019-05-23T11:26:30.112Z,2160.00
2019-05-23T11:27:30.151Z,2115.00
2019-05-23T11:28:30.186Z,2098.13
2019-05-23T11:29:30.217Z,2013.75
2019-05-23T11:30:30.255Z,2025.00
2019-05-23T11:31:30.287Z,2058.75
2019-05-23T11:32:30.328Z,2120.63
2019-05-23T11:33:30.355Z,2137.50
2019-05-23T11:34:30.393Z,2098.13
2019-05-23T11:35:30.428Z,2120.63
2019-05-23T11:36:36.190Z,2103.75
2019-05-23T11:37:30.496Z,2120.63
2019-05-23T11:38:30.537Z,2295.00
2019-05-23T11:39:30.567Z,2705.63
2019-05-23T11:40:33.535Z,3178.13
2019-05-23T11:41:30.635Z,3678.75
2019-05-23T11:42:30.671Z,3605.63
2019-05-23T11:43:30.715Z,3352.50
2019-05-23T11:44:30.748Z,3003.75
2019-05-23T11:45:30.780Z,2835.00
2019-05-23T11:46:30.813Z,2806.88
2019-05-23T11:47:32.186Z,2790.00
2019-05-23T11:48:31.229Z,2643.75
2019-05-23T11:49:30.919Z,2711.25
2019-05-23T11:50:30.956Z,2660.63
2019-05-23T11:51:30.997Z,2542.50
2019-05-23T11:52:31.024Z,2587.50
2019-05-23T11:53:31.069Z,2632.50
2019-05-23T11:54:31.092Z,2739.38
2019-05-23T11:55:31.134Z,3071.25
2019-05-23T11:56:31.161Z,3380.63
2019-05-23T11:57:31.195Z,3633.75
2019-05-23T11:58:32.620Z,3836.25
2019-05-23T11:59:31.260Z,3757.50
2019-05-23T12:00:31.377Z,3571.88
2019-05-23T12:01:31.376Z,3133.13
2019-05-23T12:02:31.427Z,2986.88
2019-05-23T12:03:31.424Z,3015.00
2019-05-23T12:04:31.428Z,2846.25
2019-05-23T12:05:31.497Z,2745.00
2019-05-23T12:06:31.500Z,2711.25
2019-05-23T12:07:31.530Z,2677.50
2019-05-23T12:08:31.561Z,2700.00
2019-05-23T12:09:31.595Z,2778.75
2019-05-23T12:10:31.629Z,2565.00
2019-05-23T12:11:35.516Z,2401.88
2019-05-23T12:12:31.693Z,2362.50
2019-05-23T12:13:31.725Z,2486.25
2019-05-23T12:14:31.758Z,2536.88
2019-05-23T12:15:31.790Z,2362.50
2019-05-23T12:16:31.834Z,2306.25
2019-05-23T12:17:31.856Z,2306.25
2019-05-23T12:18:31.887Z,2351.25
2019-05-23T12:19:32.019Z,2430.00
2019-05-23T12:20:31.952Z,2621.25
2019-05-23T12:21:31.989Z,2857.50
2019-05-23T12:22:32.061Z,2840.63
2019-05-23T12:23:32.046Z,2874.38
2019-05-23T12:24:35.284Z,2908.13
2019-05-23T12:25:32.113Z,3076.88
2019-05-23T12:26:32.143Z,3121.88
2019-05-23T12:27:32.175Z,3099.38
2019-05-23T12:28:32.210Z,2986.88
2019-05-23T12:29:32.236Z,2925.00
2019-05-23T12:30:32.273Z,3015.00
2019-05-23T12:31:32.299Z,3330.00